Time;durP1;ratioP1;P1;durP2;ratioP2;P2;SDS_P1;SDS_P2;PMS_P1;PMS_P2;Temp;Humidity;BMP_temperature;BMP_pressure;BME280_temperature;BME280_humidity;BME280_pressure;Samples;Min_cycle;Max_cycle;Signal;HPM_P1;HPM_P2
2022/08/11 00:01:12;;;;;;;2.70;2.13;;;25.80;50.60;;;;;;5017437;28;87390;-86
2022/08/11 00:03:43;;;;;;;2.40;2.20;;;25.80;50.60;;;;;;5017394;28;87468;-86
2022/08/11 00:06:12;;;;;;;2.63;1.90;;;25.90;50.80;;;;;;5019518;28;88085;-86
2022/08/11 00:08:39;;;;;;;2.25;1.90;;;25.90;50.80;;;;;;5020824;28;87459;-86
2022/08/11 00:11:10;;;;;;;3.55;2.08;;;25.80;51.00;;;;;;5021979;28;86931;-86
2022/08/11 00:13:44;;;;;;;2.78;2.15;;;25.90;50.90;;;;;;5036774;28;88781;-86
2022/08/11 00:16:16;;;;;;;3.22;2.20;;;25.80;50.80;;;;;;5021201;28;87690;-86
2022/08/11 00:18:44;;;;;;;2.13;1.90;;;25.80;51.00;;;;;;5020424;28;88854;-86
2022/08/11 00:21:11;;;;;;;2.35;1.98;;;25.80;51.00;;;;;;5034619;28;88301;-86
2022/08/11 00:23:51;;;;;;;2.20;2.00;;;25.80;51.00;;;;;;5020033;28;87356;-86
2022/08/11 00:26:21;;;;;;;2.90;2.03;;;25.80;50.90;;;;;;5021290;28;88145;-86
2022/08/11 00:28:47;;;;;;;2.05;1.83;;;25.80;50.80;;;;;;5019240;28;91651;-86
2022/08/11 00:31:30;;;;;;;2.30;2.10;;;25.80;50.90;;;;;;5019941;28;87472;-86
2022/08/11 00:33:58;;;;;;;2.80;2.20;;;25.80;51.00;;;;;;5019861;28;90421;-86
2022/08/11 00:36:37;;;;;;;2.90;2.00;;;25.80;51.00;;;;;;5021466;28;87582;-86
2022/08/11 00:39:05;;;;;;;2.10;1.80;;;25.80;50.90;;;;;;5036641;28;91444;-86
2022/08/11 00:41:35;;;;;;;2.60;2.13;;;25.80;51.00;;;;;;5021450;28;86925;-86
2022/08/11 00:44:03;;;;;;;2.38;2.00;;;25.80;51.00;;;;;;5018372;28;89663;-86
2022/08/11 00:47:14;;;;;;;3.08;2.45;;;25.80;51.10;;;;;;5019826;28;89585;-86
2022/08/11 00:50:27;;;;;;;2.30;2.10;;;25.80;51.20;;;;;;5008197;28;92519;-86
2022/08/11 00:52:52;;;;;;;2.25;1.90;;;25.80;51.30;;;;;;4958339;28;87443;-86
2022/08/11 00:56:00;;;;;;;2.08;1.88;;;25.80;51.40;;;;;;4958647;28;87420;-86
2022/08/11 00:59:10;;;;;;;3.80;2.58;;;25.80;51.30;;;;;;4957133;28;88464;-85
2022/08/11 01:01:47;;;;;;;2.10;1.92;;;25.80;51.10;;;;;;4957974;28;88819;-86
2022/08/11 01:04:25;;;;;;;2.72;1.90;;;25.70;51.20;;;;;;4957440;28;87603;-86
2022/08/11 01:07:41;;;;;;;2.67;2.00;;;25.70;51.30;;;;;;4957565;28;87397;-86
2022/08/11 01:10:24;;;;;;;3.28;2.22;;;25.70;51.20;;;;;;4959163;28;87614;-86
2022/08/11 01:12:53;;;;;;;2.15;1.67;;;25.70;51.10;;;;;;4957817;28;89247;-86
2022/08/11 01:15:39;;;;;;;2.30;1.97;;;25.70;51.20;;;;;;4958402;28;87986;-86
2022/08/11 01:18:41;;;;;;;2.92;2.20;;;25.70;51.20;;;;;;4957707;28;87221;-86
2022/08/11 01:21:28;;;;;;;2.13;1.80;;;25.70;51.10;;;;;;4941729;28;91144;-86
2022/08/11 01:24:18;;;;;;;2.45;1.98;;;25.70;51.20;;;;;;4958788;28;88326;-86
2022/08/11 01:27:01;;;;;;;3.72;2.00;;;25.70;51.20;;;;;;4964021;28;87585;-86
2022/08/11 01:30:04;;;;;;;2.92;2.00;;;25.70;51.20;;;;;;4996355;28;87625;-86
2022/08/11 01:33:01;;;;;;;2.08;1.83;;;25.70;51.10;;;;;;5019869;28;88661;-86
2022/08/11 01:35:48;;;;;;;2.22;1.70;;;25.70;51.20;;;;;;5020453;28;88415;-86
2022/08/11 01:38:32;;;;;;;2.85;2.25;;;25.70;51.20;;;;;;5020582;28;87468;-86
2022/08/11 01:44:36;;;;;;;2.80;2.15;;;25.70;51.80;;;;;;5017475;28;91833;-86
2022/08/11 01:44:56;;;;;;;3.83;2.28;;;25.70;51.30;;;;;;5018261;28;89528;-86
2022/08/11 01:50:36;;;;;;;2.20;1.88;;;25.70;51.10;;;;;;5021035;28;87334;-86
2022/08/11 01:53:22;;;;;;;1.77;1.60;;;25.70;51.20;;;;;;5020474;28;87331;-86
2022/08/11 01:55:59;;;;;;;2.40;2.00;;;25.70;51.50;;;;;;5018162;28;91835;-86
2022/08/11 01:58:52;;;;;;;1.90;1.70;;;25.70;51.30;;;;;;5018335;28;88553;-86
2022/08/11 02:01:43;;;;;;;2.15;1.77;;;25.70;51.30;;;;;;5017491;28;87396;-86
2022/08/11 02:04:24;;;;;;;2.40;1.90;;;25.70;51.30;;;;;;5019471;28;87422;-86
2022/08/11 02:07:03;;;;;;;1.83;1.63;;;25.70;51.40;;;;;;5018515;28;87406;-86
2022/08/11 02:09:31;;;;;;;;;;;25.60;51.30;;;;;;5017397;28;90280;-86
2022/08/11 02:12:08;;;;;;;2.58;1.90;;;25.70;51.40;;;;;;5018919;28;88386;-86
2022/08/11 02:14:53;;;;;;;2.40;2.08;;;25.70;51.50;;;;;;5017819;28;87555;-86
2022/08/11 02:17:36;;;;;;;2.53;1.75;;;25.60;51.40;;;;;;5018575;28;88533;-86
2022/08/11 02:26:15;;;;;;;2.55;2.28;;;25.60;51.40;;;;;;5018720;28;86816;-86
2022/08/11 02:29:09;;;;;;;2.35;1.88;;;25.60;51.50;;;;;;5016136;28;90299;-86
2022/08/11 02:35:03;;;;;;;1.80;1.65;;;25.60;51.50;;;;;;5018606;28;87356;-86
2022/08/11 02:37:31;;;;;;;2.53;1.77;;;25.60;51.60;;;;;;5019551;28;88068;-86
2022/08/11 02:39:57;;;;;;;2.28;2.05;;;25.60;51.60;;;;;;5018904;28;88637;-86
2022/08/11 02:42:33;;;;;;;1.85;1.75;;;25.60;51.60;;;;;;5019363;28;89080;-86
2022/08/11 02:45:16;;;;;;;1.92;1.67;;;25.60;51.60;;;;;;5020137;28;87033;-86
2022/08/11 02:51:22;;;;;;;2.20;1.95;;;25.60;51.40;;;;;;5019518;28;87814;-86
2022/08/11 02:54:05;;;;;;;2.50;2.05;;;25.60;51.70;;;;;;5019914;27;86941;-86
2022/08/11 02:56:50;;;;;;;3.28;1.90;;;25.60;51.60;;;;;;5019408;28;87000;-86
2022/08/11 02:59:49;;;;;;;2.10;1.90;;;25.60;51.60;;;;;;5034396;28;90188;-86
2022/08/11 03:02:33;;;;;;;1.98;1.77;;;25.60;51.70;;;;;;5018554;28;88165;-86
2022/08/11 03:05:11;;;;;;;2.03;1.70;;;25.60;51.50;;;;;;5018332;28;86951;-86
2022/08/11 03:07:51;;;;;;;2.30;1.88;;;25.60;51.60;;;;;;5017011;28;87786;-86
2022/08/11 03:10:35;;;;;;;2.67;2.13;;;25.60;51.60;;;;;;5018307;28;87596;-85
2022/08/11 03:16:47;;;;;;;2.92;2.05;;;25.60;51.80;;;;;;5019742;28;86946;-86
2022/08/11 03:19:37;;;;;;;2.10;1.63;;;25.60;51.70;;;;;;5016401;28;87235;-86
2022/08/11 03:22:13;;;;;;;2.10;1.90;;;25.50;51.60;;;;;;5018454;28;87418;-86
2022/08/11 03:24:45;;;;;;;1.80;1.67;;;25.50;51.60;;;;;;5016582;28;88001;-86
2022/08/11 03:27:43;;;;;;;1.75;1.65;;;25.50;51.70;;;;;;5017254;28;88252;-86
2022/08/11 03:30:26;;;;;;;2.45;1.80;;;25.50;51.60;;;;;;5015026;28;87290;-86
2022/08/11 03:36:40;;;;;;;2.03;1.83;;;25.50;51.60;;;;;;5013853;28;88555;-86
2022/08/11 03:39:19;;;;;;;1.85;1.70;;;25.50;51.50;;;;;;4936098;28;92529;-86
2022/08/11 03:42:13;;;;;;;2.30;2.10;;;25.50;51.60;;;;;;4940287;28;87270;-86
2022/08/11 03:45:04;;;;;;;2.25;1.90;;;25.50;51.70;;;;;;4939522;28;87567;-86
2022/08/11 03:48:03;;;;;;;2.28;1.90;;;25.50;51.70;;;;;;4939813;28;88768;-86
2022/08/11 03:50:43;;;;;;;2.08;1.63;;;25.50;51.70;;;;;;4939910;28;90500;-86
2022/08/11 03:53:46;;;;;;;2.50;1.90;;;25.50;51.80;;;;;;4940146;28;87079;-86
2022/08/11 03:56:33;;;;;;;1.75;1.65;;;25.50;51.60;;;;;;4939486;28;89880;-86
2022/08/11 03:59:35;;;;;;;3.42;2.28;;;25.50;51.90;;;;;;4938629;28;92102;-86
2022/08/11 04:02:44;;;;;;;2.22;2.00;;;25.50;51.90;;;;;;4939906;28;87262;-86
2022/08/11 04:05:45;;;;;;;1.87;1.77;;;25.50;52.00;;;;;;4939537;28;88317;-85
2022/08/11 04:08:16;;;;;;;1.80;1.67;;;25.50;52.10;;;;;;4956791;28;87502;-86
2022/08/11 04:10:56;;;;;;;1.98;1.77;;;25.50;52.00;;;;;;4958719;28;88009;-86
2022/08/11 04:17:18;;;;;;;1.88;1.73;;;25.50;51.70;;;;;;5039951;27;87443;-86
2022/08/11 04:20:04;;;;;;;1.75;1.65;;;25.50;51.70;;;;;;5058500;27;87346;-86
2022/08/11 04:22:37;;;;;;;2.17;1.60;;;25.50;51.90;;;;;;5041691;27;91530;-86
2022/08/11 04:25:36;;;;;;;1.83;1.73;;;25.50;51.70;;;;;;5042232;27;89081;-86
2022/08/11 04:28:19;;;;;;;2.88;2.22;;;25.50;51.80;;;;;;5059446;27;87288;-86
2022/08/11 04:31:06;;;;;;;2.47;2.00;;;25.50;51.90;;;;;;5042028;27;89429;-86
2022/08/11 04:33:58;;;;;;;2.17;1.83;;;25.40;51.80;;;;;;5057815;27;89478;-86
2022/08/11 04:40:12;;;;;;;1.60;1.50;;;25.40;51.90;;;;;;5058675;27;87035;-86
2022/08/11 04:43:20;;;;;;;2.05;1.85;;;25.40;52.00;;;;;;5058316;27;88198;-86
2022/08/11 04:46:05;;;;;;;1.77;1.67;;;25.40;52.00;;;;;;5058918;27;89196;-86
2022/08/11 05:01:40;;;;;;;3.15;2.38;;;25.40;52.10;;;;;;4978218;28;87268;-86
2022/08/11 05:07:15;;;;;;;2.08;1.67;;;25.40;52.60;;;;;;4977708;28;87191;-86
2022/08/11 05:09:57;;;;;;;3.28;1.83;;;25.50;52.00;;;;;;4975997;28;87672;-86
2022/08/11 05:12:39;;;;;;;1.88;1.70;;;25.50;51.90;;;;;;4977854;28;88141;-86
2022/08/11 05:35:30;;;;;;;1.88;1.67;;;25.80;51.30;;;;;;5019931;28;87370;-86
2022/08/11 05:57:30;;;;;;;5.18;2.80;;;25.80;47.70;;;;;;5018628;28;87838;-85
2022/08/11 06:00:09;;;;;;;10.85;3.47;;;25.60;47.20;;;;;;5019118;28;88314;-86
2022/08/11 06:02:43;;;;;;;9.95;3.53;;;25.50;47.20;;;;;;5019539;28;87584;-87
2022/08/11 06:05:10;;;;;;;8.63;3.28;;;25.40;47.00;;;;;;5018503;28;87608;-84
2022/08/11 06:07:37;;;;;;;19.15;4.10;;;25.40;47.20;;;;;;5019075;28;88456;-85
2022/08/11 06:10:03;;;;;;;15.88;3.28;;;25.40;47.10;;;;;;5018595;28;87490;-86
2022/08/11 06:12:31;;;;;;;22.63;4.40;;;25.30;47.00;;;;;;5018282;28;89168;-84
2022/08/11 06:15:01;;;;;;;25.52;4.25;;;25.40;47.50;;;;;;5017651;28;88297;-84
2022/08/11 06:17:32;;;;;;;19.05;4.60;;;25.40;47.00;;;;;;5018278;28;88417;-84
2022/08/11 06:20:01;;;;;;;14.77;3.72;;;25.40;47.00;;;;;;5018664;28;86862;-84
2022/08/11 06:22:27;;;;;;;14.18;4.00;;;25.40;46.20;;;;;;5020308;28;88093;-84
2022/08/11 06:24:58;;;;;;;12.98;3.80;;;25.30;46.00;;;;;;5019267;28;90197;-84
2022/08/11 06:27:28;;;;;;;15.77;4.28;;;25.40;46.20;;;;;;5020567;28;89252;-84
2022/08/11 06:29:55;;;;;;;11.65;3.58;;;25.30;45.60;;;;;;5018879;28;87133;-85
2022/08/11 06:32:27;;;;;;;8.43;3.08;;;25.30;45.30;;;;;;5017990;28;89601;-84
2022/08/11 06:34:53;;;;;;;9.45;3.75;;;25.30;45.30;;;;;;5018765;28;87739;-84
2022/08/11 06:37:24;;;;;;;12.90;3.45;;;25.40;45.70;;;;;;5017282;28;88406;-84
2022/08/11 06:40:10;;;;;;;11.45;3.25;;;25.40;45.40;;;;;;5018073;28;87166;-84
2022/08/11 06:42:35;;;;;;;10.65;3.75;;;25.40;45.70;;;;;;5017684;28;88633;-84
2022/08/11 06:45:16;;;;;;;12.48;3.58;;;25.30;46.00;;;;;;5015916;28;91781;-84
2022/08/11 06:47:46;;;;;;;13.02;3.72;;;25.30;45.30;;;;;;5017443;28;88206;-84
2022/08/11 06:53:09;;;;;;;24.63;7.15;;;25.40;44.90;;;;;;5016595;28;86960;-86
2022/08/11 07:01:14;;;;;;;30.30;6.63;;;25.40;45.90;;;;;;5017991;28;87506;-85
2022/08/11 07:03:45;;;;;;;22.88;6.40;;;25.40;45.90;;;;;;5016652;28;88388;-85
2022/08/11 07:06:37;;;;;;;27.63;7.40;;;25.40;45.90;;;;;;5016634;28;87679;-85
2022/08/11 07:29:08;;;;;;;14.50;4.93;;;25.60;46.70;;;;;;5017879;28;87608;-82
2022/08/11 07:31:48;;;;;;;12.90;5.03;;;25.60;46.80;;;;;;5015997;28;87267;-83
2022/08/11 07:34:34;;;;;;;16.30;4.57;;;25.60;47.00;;;;;;5016389;28;87479;-83
2022/08/11 07:37:08;;;;;;;20.10;5.30;;;25.60;47.30;;;;;;5017090;28;87581;-83
2022/08/11 07:39:39;;;;;;;17.58;5.32;;;25.60;47.40;;;;;;5017059;28;87453;-83
2022/08/11 07:42:10;;;;;;;14.25;5.32;;;25.60;47.40;;;;;;5017969;28;87505;-84
2022/08/11 07:52:53;;;;;;;20.95;5.50;;;25.70;48.00;;;;;;5015449;28;87332;-83
2022/08/11 07:55:21;;;;;;;14.18;4.95;;;25.80;48.10;;;;;;5016247;28;87720;-82
2022/08/11 08:19:59;;;;;;;11.70;4.85;;;25.70;49.70;;;;;;5017439;28;87287;-83
2022/08/11 08:22:25;;;;;;;10.68;4.20;;;25.70;49.80;;;;;;5017407;28;88472;-83
2022/08/11 08:24:54;;;;;;;14.95;5.28;;;25.80;50.10;;;;;;5016387;28;87932;-83
2022/08/11 08:27:20;;;;;;;15.13;4.75;;;25.70;50.20;;;;;;5018836;28;86884;-83
2022/08/11 08:32:33;;;;;;;14.23;4.40;;;25.70;50.40;;;;;;5019659;28;87639;-83
2022/08/11 08:35:01;;;;;;;11.10;4.80;;;25.70;51.30;;;;;;5019165;28;90981;-82
2022/08/11 08:37:27;;;;;;;8.57;4.50;;;25.70;50.60;;;;;;5021085;28;88179;-83
2022/08/11 08:39:54;;;;;;;15.98;4.95;;;25.70;50.80;;;;;;5018480;28;87529;-84
2022/08/11 08:42:29;;;;;;;13.63;4.28;;;25.70;50.90;;;;;;5018611;28;88338;-85
2022/08/11 08:45:03;;;;;;;10.82;4.40;;;25.70;50.80;;;;;;5017715;28;89222;-84
2022/08/11 08:47:34;;;;;;;12.07;3.78;;;25.70;50.90;;;;;;5017582;28;86867;-84
2022/08/11 08:50:04;;;;;;;11.00;4.63;;;25.80;51.00;;;;;;5020509;28;87306;-84
2022/08/11 08:52:39;;;;;;;11.05;4.68;;;25.70;50.90;;;;;;5020209;28;87756;-84
2022/08/11 08:55:06;;;;;;;19.30;5.20;;;25.80;50.90;;;;;;5020687;28;87896;-84
2022/08/11 08:57:36;;;;;;;17.38;5.20;;;25.80;50.80;;;;;;5020488;28;87652;-84
2022/08/11 09:00:05;;;;;;;26.73;5.72;;;25.80;50.90;;;;;;5019071;28;89327;-84
2022/08/11 09:02:31;;;;;;;21.55;5.75;;;25.80;51.10;;;;;;5033391;28;91338;-84
2022/08/11 09:04:58;;;;;;;24.67;7.07;;;25.80;51.20;;;;;;5018412;28;90688;-84
2022/08/11 09:07:25;;;;;;;28.52;7.03;;;25.80;51.30;;;;;;5019569;28;87299;-83
2022/08/11 09:09:53;;;;;;;27.02;7.47;;;25.70;51.40;;;;;;5020057;28;87880;-83
2022/08/11 09:12:25;;;;;;;21.05;6.82;;;25.80;51.50;;;;;;5019720;28;88506;-84
2022/08/11 09:15:03;;;;;;;21.60;6.78;;;25.80;51.30;;;;;;5017969;28;87279;-84
2022/08/11 09:17:45;;;;;;;24.15;6.82;;;25.80;51.50;;;;;;5019261;28;87524;-84
2022/08/11 09:20:35;;;;;;;24.10;7.25;;;25.80;51.50;;;;;;5020358;28;86633;-83
2022/08/11 09:28:43;;;;;;;24.38;7.60;;;25.80;51.50;;;;;;5018231;28;88409;-84
2022/08/11 09:31:10;;;;;;;19.10;6.25;;;25.80;51.50;;;;;;5034508;28;88902;-84
2022/08/11 09:33:37;;;;;;;20.50;7.00;;;25.80;51.60;;;;;;5017940;28;92160;-84
2022/08/11 09:40:27;;;;;;;22.23;7.10;;;25.80;51.40;;;;;;5020293;28;87781;-84
2022/08/11 09:41:35;;;;;;;20.27;6.85;;;25.90;51.50;;;;;;5018477;28;87458;-84
2022/08/11 09:46:46;;;;;;;19.25;6.32;;;25.90;51.40;;;;;;5020361;28;87111;-84
2022/08/11 09:49:12;;;;;;;21.42;6.90;;;25.90;51.50;;;;;;5019794;28;86930;-84
2022/08/11 09:51:37;;;;;;;17.83;6.30;;;25.80;51.50;;;;;;5019076;28;87512;-85
2022/08/11 09:54:07;;;;;;;16.98;7.13;;;25.80;51.60;;;;;;5018755;28;89362;-84
2022/08/11 09:59:20;;;;;;;17.05;6.18;;;25.90;51.40;;;;;;5020200;28;87306;-84
2022/08/11 10:01:49;;;;;;;19.42;6.15;;;25.90;51.30;;;;;;5018832;28;86960;-84
2022/08/11 10:04:18;;;;;;;15.52;5.32;;;25.90;51.40;;;;;;5018143;28;87843;-84
2022/08/11 10:07:01;;;;;;;18.80;5.93;;;25.90;51.10;;;;;;5018221;28;87323;-85
2022/08/11 10:09:34;;;;;;;15.48;6.63;;;25.90;51.20;;;;;;5019680;28;87335;-85
2022/08/11 10:12:02;;;;;;;14.77;5.43;;;26.00;51.30;;;;;;5018176;28;90252;-82
2022/08/11 10:17:17;;;;;;;12.95;5.38;;;26.00;51.40;;;;;;5018054;28;87756;-84
2022/08/11 10:19:45;;;;;;;;;;;26.00;51.20;;;;;;5018067;28;88335;-83
2022/08/11 10:27:43;;;;;;;11.77;5.32;;;26.00;51.80;;;;;;5017764;28;87302;-84
2022/08/11 10:35:42;;;;;;;12.68;5.10;;;26.10;52.30;;;;;;5017625;28;86881;-84
2022/08/11 10:38:08;;;;;;;9.13;5.00;;;26.10;51.50;;;;;;5019230;28;88260;-85
2022/08/11 10:40:34;;;;;;;17.15;5.20;;;26.10;51.20;;;;;;5017474;28;88207;-85
2022/08/11 10:43:01;;;;;;;13.32;5.20;;;26.10;51.70;;;;;;5018751;28;86939;-83
2022/08/11 10:48:25;;;;;;;16.20;5.70;;;26.10;52.30;;;;;;5018022;28;87670;-86
2022/08/11 10:59:21;;;;;;;11.73;5.05;;;26.00;52.30;;;;;;5017957;28;87478;-84
2022/08/11 11:01:48;;;;;;;15.55;5.50;;;26.00;52.70;;;;;;5018643;28;87438;-84
2022/08/11 11:04:15;;;;;;;11.63;4.97;;;26.00;52.80;;;;;;5017550;28;86955;-83
2022/08/11 11:07:00;;;;;;;15.07;5.60;;;26.10;52.80;;;;;;5017351;28;88338;-83
2022/08/11 11:09:43;;;;;;;14.60;5.45;;;26.10;52.80;;;;;;5017675;28;87938;-84
2022/08/11 11:17:55;;;;;;;14.25;5.30;;;26.10;52.90;;;;;;5017939;28;87163;-84
2022/08/11 11:20:41;;;;;;;10.60;4.82;;;26.10;52.60;;;;;;5034031;28;91722;-84
2022/08/11 11:23:18;;;;;;;12.73;5.20;;;26.10;52.70;;;;;;5018047;28;87204;-84
2022/08/11 11:26:05;;;;;;;13.25;5.20;;;26.10;52.50;;;;;;5018207;28;87320;-84
2022/08/11 11:29:07;;;;;;;12.90;4.80;;;26.10;52.50;;;;;;5017512;28;90757;-84
2022/08/11 11:31:32;;;;;;;11.57;4.00;;;26.00;52.60;;;;;;5017938;28;88333;-84
2022/08/11 11:34:37;;;;;;;9.77;4.90;;;26.00;52.70;;;;;;5018157;28;87291;-85
2022/08/11 11:37:03;;;;;;;12.95;5.00;;;26.00;52.50;;;;;;5018288;28;87252;-84
2022/08/11 11:39:33;;;;;;;13.30;4.65;;;26.00;52.60;;;;;;5017632;28;89577;-84
2022/08/11 11:42:06;;;;;;;11.77;4.28;;;26.00;52.70;;;;;;5017633;28;88249;-84
2022/08/11 11:44:34;;;;;;;11.55;5.05;;;26.00;52.60;;;;;;5017060;28;87158;-84
2022/08/11 11:47:00;;;;;;;13.38;5.15;;;26.00;52.40;;;;;;5018670;28;86960;-85
2022/08/11 11:49:28;;;;;;;9.50;4.57;;;26.00;52.60;;;;;;5017519;28;88664;-84
2022/08/11 11:51:55;;;;;;;10.18;4.47;;;26.00;52.40;;;;;;5015658;28;89053;-84
2022/08/11 11:54:27;;;;;;;11.07;4.65;;;26.00;52.20;;;;;;5017935;28;86920;-83
2022/08/11 11:56:54;;;;;;;9.13;4.93;;;26.00;52.20;;;;;;5018061;28;87433;-84
2022/08/11 12:02:08;;;;;;;9.45;4.15;;;26.00;52.30;;;;;;5018895;28;87616;-84
2022/08/11 12:04:36;;;;;;;10.25;4.40;;;26.00;52.20;;;;;;5020030;28;88014;-84
2022/08/11 12:09:48;;;;;;;12.43;4.55;;;26.00;52.10;;;;;;5020001;28;87366;-84
2022/08/11 12:15:00;;;;;;;9.55;4.28;;;26.00;52.20;;;;;;5020622;28;86847;-85
2022/08/11 12:17:26;;;;;;;7.72;3.83;;;26.00;52.20;;;;;;5021294;28;87418;-84
2022/08/11 12:19:52;;;;;;;8.68;4.40;;;26.00;52.10;;;;;;5018866;28;90746;-84
2022/08/11 12:27:48;;;;;;;7.35;3.67;;;26.10;52.00;;;;;;5019214;28;87157;-84
2022/08/11 12:30:14;;;;;;;10.38;4.60;;;26.10;51.90;;;;;;5020145;28;89061;-84
2022/08/11 12:32:42;;;;;;;7.45;3.95;;;26.00;52.00;;;;;;5018272;28;93918;-84
2022/08/11 12:35:08;;;;;;;10.60;3.92;;;26.00;51.90;;;;;;5021058;28;87523;-84
2022/08/11 12:37:38;;;;;;;9.20;3.70;;;26.00;51.90;;;;;;5021626;28;87163;-84
2022/08/11 12:45:42;;;;;;;8.40;3.83;;;26.00;52.00;;;;;;5021072;28;87131;-84
2022/08/11 12:53:58;;;;;;;7.95;3.97;;;26.00;52.00;;;;;;5018380;28;88399;-84
2022/08/11 13:04:54;;;;;;;7.97;3.45;;;26.10;52.00;;;;;;5021000;28;87399;-85
2022/08/11 13:07:21;;;;;;;7.53;3.80;;;26.10;52.00;;;;;;5019254;28;87284;-85
2022/08/11 13:09:50;;;;;;;10.27;3.55;;;26.20;51.90;;;;;;5019393;28;87567;-87
2022/08/11 13:15:05;;;;;;;7.53;3.50;;;26.20;51.50;;;;;;5020175;28;87046;-85
2022/08/11 13:17:31;;;;;;;9.98;3.58;;;26.30;51.90;;;;;;5021053;28;87661;-85
2022/08/11 13:19:58;;;;;;;5.45;3.33;;;26.50;51.60;;;;;;5019665;28;87928;-85
2022/08/11 13:22:25;;;;;;;8.57;3.35;;;26.60;51.10;;;;;;5018979;28;89406;-84
2022/08/11 13:24:54;;;;;;;7.40;3.45;;;26.70;50.80;;;;;;5019376;28;89252;-84
2022/08/11 13:27:20;;;;;;;12.52;3.60;;;26.80;50.80;;;;;;5018092;28;87307;-83
2022/08/11 13:29:48;;;;;;;8.00;3.90;;;26.90;51.00;;;;;;5019041;28;88151;-83
2022/08/11 13:32:15;;;;;;;9.00;3.60;;;26.90;50.80;;;;;;5018998;28;88666;-84
2022/08/11 13:34:42;;;;;;;6.72;3.17;;;26.90;50.70;;;;;;5018963;28;87753;-85
2022/08/11 13:37:11;;;;;;;6.90;3.22;;;27.00;50.60;;;;;;5018447;28;87184;-84
2022/08/11 13:39:42;;;;;;;7.40;3.42;;;27.00;50.30;;;;;;5018722;28;86749;-83
2022/08/11 13:42:09;;;;;;;5.38;3.03;;;27.00;50.30;;;;;;5019389;28;88439;-84
2022/08/11 13:44:37;;;;;;;6.53;3.25;;;27.00;50.30;;;;;;5018676;28;87794;-83
2022/08/11 13:47:05;;;;;;;6.93;3.45;;;27.00;50.00;;;;;;4956395;27;88449;-86
2022/08/11 13:49:36;;;;;;;13.63;3.70;;;27.00;50.10;;;;;;5016817;28;90375;-84
2022/08/11 13:52:03;;;;;;;11.20;3.25;;;27.00;49.70;;;;;;5018405;28;88346;-84
2022/08/11 13:54:31;;;;;;;6.15;2.95;;;26.80;48.30;;;;;;5019047;28;88704;-85
2022/08/11 13:57:04;;;;;;;9.88;3.40;;;26.70;47.10;;;;;;5017424;28;86923;-84
2022/08/11 13:59:30;;;;;;;9.18;3.03;;;26.70;46.20;;;;;;5020533;28;87285;-85
2022/08/11 14:02:03;;;;;;;5.03;2.65;;;26.60;46.30;;;;;;5018464;28;87796;-84
2022/08/11 14:04:39;;;;;;;6.38;3.60;;;26.50;46.00;;;;;;5019032;28;87642;-82
2022/08/11 14:07:07;;;;;;;8.15;3.38;;;26.50;45.30;;;;;;5018067;28;86924;-82
2022/08/11 14:09:36;;;;;;;6.80;3.20;;;26.30;45.00;;;;;;5016650;28;90725;-84
2022/08/11 14:15:06;;;;;;;5.63;2.83;;;26.20;45.10;;;;;;5020127;28;87865;-83
2022/08/11 14:17:33;;;;;;;5.90;3.00;;;26.20;44.90;;;;;;5020824;28;87213;-84
2022/08/11 14:20:03;;;;;;;5.97;2.60;;;26.10;44.50;;;;;;5020287;28;87384;-85
2022/08/11 14:22:30;;;;;;;5.88;2.90;;;26.10;43.90;;;;;;5018312;28;93172;-82
2022/08/11 14:24:57;;;;;;;8.70;3.63;;;26.10;43.60;;;;;;5020119;28;88878;-83
2022/08/11 14:27:29;;;;;;;6.45;3.35;;;26.10;43.30;;;;;;5019278;28;87653;-83
2022/08/11 14:29:56;;;;;;;5.35;2.88;;;26.10;43.10;;;;;;5016447;28;86417;-82
2022/08/11 14:32:23;;;;;;;7.93;2.83;;;26.10;42.60;;;;;;5019766;28;90361;-83
2022/08/11 14:34:49;;;;;;;8.50;2.83;;;26.10;42.40;;;;;;5019261;28;87624;-83
2022/08/11 14:37:20;;;;;;;6.13;2.72;;;26.00;42.10;;;;;;5020578;28;88659;-82
2022/08/11 14:39:50;;;;;;;6.32;2.97;;;26.00;41.90;;;;;;5020353;28;86954;-83
2022/08/11 14:48:00;;;;;;;17.23;2.72;;;25.90;41.20;;;;;;5007639;27;87162;-83
2022/08/11 14:50:27;;;;;;;5.57;2.47;;;25.90;41.30;;;;;;5019931;28;87583;-83
2022/08/11 14:53:00;;;;;;;7.32;2.45;;;25.90;41.20;;;;;;5017335;28;90590;-85
2022/08/11 14:58:16;;;;;;;8.02;2.30;;;25.90;41.00;;;;;;5019695;28;86925;-84
2022/08/11 15:00:43;;;;;;;11.32;2.78;;;25.90;40.80;;;;;;5016638;28;90406;-84
2022/08/11 15:03:14;;;;;;;4.75;2.80;;;25.80;41.10;;;;;;5017181;28;90173;-84
2022/08/11 15:05:49;;;;;;;4.60;2.60;;;25.80;40.70;;;;;;5018828;28;88855;-84
2022/08/11 15:08:17;;;;;;;17.88;3.47;;;25.80;40.30;;;;;;5017869;28;87057;-86
2022/08/11 15:10:44;;;;;;;9.35;2.85;;;25.80;40.70;;;;;;5015483;28;87380;-85
2022/08/11 15:13:10;;;;;;;5.60;2.58;;;25.80;40.50;;;;;;5015949;28;88096;-87
2022/08/11 15:18:23;;;;;;;8.20;2.25;;;25.80;40.20;;;;;;5015509;28;86911;-86
2022/08/11 15:37:25;;;;;;;9.10;2.65;;;25.80;39.70;;;;;;5015299;28;87483;-88
2022/08/11 15:37:45;;;;;;;6.63;2.35;;;25.80;38.90;;;;;;5031430;28;88327;-87
2022/08/11 15:46:01;;;;;;;4.65;2.03;;;25.80;38.40;;;;;;5031989;28;87487;-85
2022/08/11 15:48:37;;;;;;;7.13;2.55;;;25.80;38.40;;;;;;5031581;28;88191;-86
2022/08/11 15:51:11;;;;;;;6.70;2.17;;;25.80;38.40;;;;;;5031705;28;88065;-86
2022/08/11 15:53:48;;;;;;;6.55;2.30;;;25.80;38.10;;;;;;5031643;28;87331;-88
2022/08/11 15:56:15;;;;;;;5.53;2.25;;;25.70;38.30;;;;;;5030250;28;89054;-89
2022/08/11 16:04:25;;;;;;;39.35;10.00;;;25.90;40.40;;;;;;5032870;27;87079;-84
2022/08/11 16:06:56;;;;;;;44.63;10.55;;;26.10;40.30;;;;;;5032916;28;88498;-84
2022/08/11 16:09:28;;;;;;;40.80;9.75;;;26.10;40.60;;;;;;5022359;28;88483;-84
2022/08/11 16:11:58;;;;;;;33.92;8.75;;;26.30;41.00;;;;;;5015497;28;86991;-84
2022/08/11 16:17:12;;;;;;;39.45;9.98;;;26.60;41.30;;;;;;5018070;28;87882;-85
2022/08/11 16:19:41;;;;;;;34.92;8.30;;;26.70;41.60;;;;;;5015914;28;87683;-85
2022/08/11 16:22:10;;;;;;;26.75;7.10;;;26.80;41.80;;;;;;5014850;28;88250;-84
2022/08/11 16:24:37;;;;;;;;;;;26.80;41.90;;;;;;5015330;28;87233;-83
2022/08/11 16:27:04;;;;;;;26.95;7.22;;;26.90;42.10;;;;;;5016024;28;91669;-83
2022/08/11 16:29:31;;;;;;;23.15;7.50;;;26.90;42.30;;;;;;5014655;28;88789;-83
2022/08/11 16:32:16;;;;;;;24.95;7.80;;;27.00;42.50;;;;;;5015675;28;86838;-84
2022/08/11 16:40:21;;;;;;;22.40;6.75;;;27.10;43.00;;;;;;5017002;28;86908;-84
2022/08/11 16:48:21;;;;;;;19.98;6.70;;;27.10;43.30;;;;;;5016271;28;88486;-85
2022/08/11 16:50:47;;;;;;;20.35;6.43;;;27.20;43.40;;;;;;5018877;28;88995;-86
2022/08/11 16:53:14;;;;;;;16.52;6.25;;;27.10;43.60;;;;;;5017336;28;87004;-86
2022/08/11 16:55:40;;;;;;;21.42;6.43;;;27.00;43.70;;;;;;5019418;28;87243;-86
2022/08/11 17:00:51;;;;;;;22.27;6.43;;;26.80;43.50;;;;;;5019144;28;87617;-90
2022/08/11 17:14:38;;;;;;;19.17;6.65;;;26.60;45.00;;;;;;5018376;28;88358;-87
2022/08/11 17:17:16;;;;;;;21.35;6.60;;;26.60;44.40;;;;;;5016823;28;91794;-87
2022/08/11 17:19:51;;;;;;;17.40;7.03;;;26.60;44.10;;;;;;5017720;28;88408;-87
2022/08/11 17:25:06;;;;;;;20.67;6.72;;;26.40;42.70;;;;;;5017862;28;88264;-86
2022/08/11 17:27:34;;;;;;;21.02;7.22;;;26.30;42.00;;;;;;5017496;28;86818;-87
2022/08/11 17:30:03;;;;;;;19.02;6.93;;;26.20;41.70;;;;;;5016463;28;88515;-87
2022/08/11 17:35:29;;;;;;;16.63;6.03;;;26.20;40.40;;;;;;5017087;28;87646;-88
2022/08/11 17:38:19;;;;;;;18.58;6.03;;;26.10;40.30;;;;;;5017184;28;86820;-87
2022/08/11 17:49:07;;;;;;;16.55;6.22;;;26.00;48.60;;;;;;5016864;28;86992;-87
2022/08/11 17:59:55;;;;;;;14.63;5.68;;;26.20;46.60;;;;;;5017106;28;86284;-87
2022/08/11 18:05:11;;;;;;;18.05;6.50;;;26.20;44.20;;;;;;5017298;28;86941;-88
